Ixtapa, GRO, Mexico
Current Conditions -  °F | °C
As of 4:40 PM on Tuesday 21 Oct 2014 (Local Time) from MMZH Reporting Station
Scattered Clouds Scattered Clouds  
Wind Chill: 88°   Ceiling: Unl
Heat Index: 98°   Visibility: 6mi
Dew Point: 75°   Wind: 5mph
Humidity: 66%   Direction: 210°SSW
Pressure: 29.71"   Gusts: NA
Location:  17.66°N, 101.59°W
Report Text: MMZH 212140Z 21004KT 6SM SCT020TCU SCT250 31/24 A2971 RMK 8/202 HZY
Loading
Personal Weather Stations






























Interactive Weather Map
Tropical Storm Tracking
New forecast layout! Learn more

10-Day Weather Forecast

Advertisements
Track Severe Weather on mobile